Glenwood Springs, CO (81601)

12:20 PM MDT on March 24, 2017 (GMT -0600)
SE Glenwood Springs | | Change Station

Elev 5948 ft 39.53 °N, 107.32 °W | Updated 5 seconds ago

Mostly Cloudy
Mostly Cloudy
55.4 °F
Feels Like 55.4 °F
N
2.7
Wind Variable Wind from WSW
Gusts 4.9 mph

Today
High -- | Low -- °F
--% Chance of Precip.
Yesterday
High -- | Low -- °F
Precip. -- in
Pressure 30.09 in
Visibility 10.0 miles
Clouds Scattered Clouds 5000 ft
Scattered Clouds 7000 ft
Dew Point 28 °F
Humidity 35%
Rainfall 0.07 in
Snow Depth Not available.
7:05 AM 7:25 PM
Waning Crescent, 14% visible
METAR KRIL 241753Z AUTO 36009KT 10SM SCT050 SCT070 11/M02 A3017 RMK AO2 SLP189 T01111022 10122 20050 51012
Pressure 30.09 in
Visibility 10.0 miles
Clouds Scattered Clouds 5000 ft
Scattered Clouds 7000 ft
Dew Point 28 °F
Humidity 35%
Rainfall 0.07 in
Snow Depth Not available.
7:05 AM 7:25 PM
Waning Crescent, 14% visible
METAR KRIL 241753Z AUTO 36009KT 10SM SCT050 SCT070 11/M02 A3017 RMK AO2 SLP189 T01111022 10122 20050 51012

Get Severe Weather Alerts

Thanks for signing up!

Be on the lookout for a verification email in your inbox.

You'll start receiving the daily forecast at 8 AM.

×

10-Day Weather Forecast

Almanac

Astronomy

Mar. 24, 2017 Rise Set
Actual Time
Civil Twilight
Nautical Twilight
Astronomical Twilight
Moon
Length of Visible Light
Length of Day
Tomorrow will be .
, % of the Moon is Illuminated

Today's Extremes

State Highs State Lows

Community

WunderPhotos

Upload Photos

1,962,540 photos uploaded!

WunderBlog® & News

Nearby

Air Quality

  Air Quality AQ Index Pollutant
Not available.

Snow Depth

Station Depth Elevation

Earthquake Activity

City Distance Mag. Time & Date
Minimum magnitude displayed is 2.5.

Earthquake Activity

City Distance Mag. Time & Date
Minimum magnitude displayed is 2.5.

Coastal Water Temperatures

Place Temperature

Stations

Nearby Weather Stations

Station Location Temp. Windchill Dew Point Humidity Wind Precip. Elev Updated Type
                   

Watches & Warnings

There are currently no watches in effect.